This is the latest recevied weather packets stored in our database for station/object DF9PV-5. If no packets are shown the sender has not sent any weather packets the latest 10 day(s).
| Time | Temp. | Humidity | Pressure | Rain* | Wind** | Luminosity | Snow |
|---|---|---|---|---|---|---|---|
| 1777360536 | 12.78° C | 52% | 1019.4 hPa | 0 mm | - | - | - |
| 1777356632 | 11.11° C | 59% | 1019.4 hPa | 0 mm | - | - | - |
| 1777356024 | 10.56° C | 62% | 1019.6 hPa | 0 mm | - | - | - |
| 1777355424 | 9.44° C | 64% | 1019.5 hPa | 0 mm | - | - | - |
| 1777354821 | 9.44° C | 67% | 1019.3 hPa | 0 mm | - | - | - |
| 1777347945 | 7.22° C | 74% | 1019.1 hPa | 0 mm | - | - | - |
| 1777347621 | 7.22° C | 73% | 1019.1 hPa | 0 mm | - | - | - |
| 1777347030 | 7.78° C | 71% | 1019 hPa | 0 mm | - | - | - |
| 1777343749 | 8.33° C | 68% | 1019 hPa | 0 mm | - | - | - |
| 1777342838 | 8.33° C | 69% | 1019 hPa | 0 mm | - | - | - |
| 1777341940 | 8.33° C | 69% | 1019 hPa | 0 mm | - | - | - |
| 1777341333 | 8.33° C | 68% | 1019 hPa | 0 mm | - | - | - |
| 1777340725 | 8.33° C | 69% | 1019.1 hPa | 0 mm | - | - | - |
| 1777340437 | 8.33° C | 69% | 1019.1 hPa | 0 mm | - | - | - |
| 1777338937 | 8.89° C | 70% | 1019 hPa | 0 mm | - | - | - |
| 1777338336 | 9.44° C | 66% | 1018.9 hPa | 0 mm | - | - | - |
| 1777338041 | 9.44° C | 65% | 1019 hPa | 0 mm | - | - | - |
| 1777337429 | 9.44° C | 65% | 1018.9 hPa | 0 mm | - | - | - |
| 1777337123 | 9.44° C | 65% | 1019 hPa | 0 mm | - | - | - |
| 1777336534 | 9.44° C | 65% | 1019 hPa | 0 mm | - | - | - |
| 1777334726 | 10.56° C | 60% | 1019 hPa | 0 mm | - | - | - |
| 1777334166 | 11.11° C | 55% | 1019 hPa | 0 mm | - | - | - |
| 1777331142 | 11.67° C | 55% | 1018.8 hPa | 0 mm | - | - | - |
| 1777329622 | 11.11° C | 63% | 1018.8 hPa | 0 mm | - | - | - |
| 1777327840 | 11.67° C | 61% | 1018.8 hPa | 0 mm | - | - | - |
* Rain latest hour (hover to see other rain measurements)
** Current wind speed in m/s (hover to see current wind gust speed)